createdAt,value
2018-04-27T00:00:26.996Z,57.71
2018-04-27T00:01:47.998Z,58.10
2018-04-27T00:02:26.986Z,57.81
2018-04-27T00:03:26.979Z,58.19
2018-04-27T00:04:47.981Z,58.29
2018-04-27T00:05:26.971Z,58.39
2018-04-27T00:06:47.969Z,58.29
2018-04-27T00:07:26.955Z,58.10
2018-04-27T00:08:26.952Z,58.29
2018-04-27T00:09:47.954Z,58.29
2018-04-27T00:10:26.937Z,58.29
2018-04-27T00:11:47.941Z,58.10
2018-04-27T00:12:26.940Z,58.39
2018-04-27T00:13:26.921Z,58.29
2018-04-27T00:14:47.925Z,58.00
2018-04-27T00:15:26.909Z,58.10
2018-04-27T00:16:47.910Z,58.48
2018-04-27T00:17:26.899Z,58.10
2018-04-27T00:18:26.895Z,58.29
2018-04-27T00:19:47.895Z,58.26
2018-04-27T00:20:26.891Z,58.36
2018-04-27T00:21:47.878Z,58.39
2018-04-27T00:22:26.868Z,58.68
2018-04-27T00:23:26.862Z,58.65
2018-04-27T00:24:47.868Z,58.77
2018-04-27T00:25:26.850Z,58.77
2018-04-27T00:26:47.849Z,58.68
2018-04-27T00:27:26.841Z,58.58
2018-04-27T00:28:26.834Z,58.58
2018-04-27T00:29:47.831Z,58.65
2018-04-27T00:30:26.820Z,58.68
2018-04-27T00:31:47.825Z,58.77
2018-04-27T00:32:26.813Z,58.77
2018-04-27T00:33:26.803Z,58.68
2018-04-27T00:34:47.810Z,58.68
2018-04-27T00:35:26.792Z,58.58
2018-04-27T00:36:47.794Z,58.29
2018-04-27T00:37:26.786Z,58.58
2018-04-27T00:38:26.811Z,58.36
2018-04-27T00:39:47.804Z,58.36
2018-04-27T00:40:26.771Z,58.45
2018-04-27T00:41:47.763Z,58.55
2018-04-27T00:42:26.750Z,58.65
2018-04-27T00:43:26.746Z,58.36
2018-04-27T00:44:47.746Z,58.45
2018-04-27T00:45:26.732Z,58.45
2018-04-27T00:46:47.733Z,58.45
2018-04-27T00:47:26.723Z,58.26
2018-04-27T00:48:26.713Z,58.39
2018-04-27T00:49:47.717Z,58.39
2018-04-27T00:50:26.706Z,58.19
2018-04-27T00:51:47.701Z,58.36
2018-04-27T00:52:26.692Z,58.36
2018-04-27T00:53:26.688Z,58.29
2018-04-27T00:54:47.685Z,58.36
2018-04-27T00:55:26.677Z,58.39
2018-04-27T00:56:47.676Z,58.36
2018-04-27T00:57:26.661Z,58.45
2018-04-27T00:58:26.657Z,58.36
2018-04-27T00:59:47.656Z,58.45
2018-04-27T01:00:26.649Z,58.17
2018-04-27T01:01:47.644Z,58.26
2018-04-27T01:02:26.633Z,58.17
2018-04-27T01:03:26.629Z,58.36
2018-04-27T01:04:47.628Z,58.17
2018-04-27T01:05:26.616Z,58.29
2018-04-27T01:06:47.618Z,58.10
2018-04-27T01:07:26.604Z,58.39
2018-04-27T01:08:26.601Z,58.07
2018-04-27T01:09:47.604Z,58.68
2018-04-27T01:10:26.589Z,58.75
2018-04-27T01:11:47.587Z,58.75
2018-04-27T01:12:26.579Z,58.36
2018-04-27T01:13:26.572Z,58.75
2018-04-27T01:14:47.570Z,58.45
2018-04-27T01:15:26.558Z,58.45
2018-04-27T01:16:47.559Z,58.65
2018-04-27T01:17:26.550Z,58.77
2018-04-27T01:18:26.541Z,58.87
2018-04-27T01:19:47.598Z,58.55
2018-04-27T01:20:26.528Z,58.75
2018-04-27T01:21:47.533Z,58.84
2018-04-27T01:22:26.514Z,58.58
2018-04-27T01:23:26.513Z,59.23
2018-04-27T01:24:47.513Z,59.35
2018-04-27T01:25:26.503Z,58.75
2018-04-27T01:26:47.499Z,59.13
2018-04-27T01:27:26.518Z,59.23
2018-04-27T01:28:26.482Z,59.03
2018-04-27T01:29:47.482Z,59.06
2018-04-27T01:30:26.468Z,59.23
2018-04-27T01:31:47.471Z,58.84
2018-04-27T01:32:26.457Z,58.94
2018-04-27T01:33:26.460Z,59.13
2018-04-27T01:34:47.454Z,59.03
2018-04-27T01:35:26.438Z,58.94
2018-04-27T01:36:47.440Z,59.13
2018-04-27T01:37:26.430Z,59.13
2018-04-27T01:38:26.421Z,59.16
2018-04-27T01:39:47.424Z,59.03
2018-04-27T01:40:26.411Z,59.03
2018-04-27T01:41:47.410Z,59.03
2018-04-27T01:42:26.397Z,58.84
2018-04-27T01:43:26.397Z,59.03
2018-04-27T01:44:47.400Z,59.13
2018-04-27T01:45:26.387Z,59.13
2018-04-27T01:46:47.379Z,59.16
2018-04-27T01:47:26.369Z,59.13
2018-04-27T01:48:26.364Z,59.13
2018-04-27T01:49:47.361Z,59.03
2018-04-27T01:50:26.351Z,59.03
2018-04-27T01:51:47.356Z,59.03
2018-04-27T01:52:26.340Z,58.94
2018-04-27T01:53:26.335Z,59.25
2018-04-27T01:54:47.340Z,58.75
2018-04-27T01:55:26.323Z,59.03
2018-04-27T01:56:47.325Z,59.03
2018-04-27T01:57:26.313Z,59.13
2018-04-27T01:58:26.304Z,59.03
2018-04-27T01:59:47.304Z,58.94
2018-04-27T02:00:26.291Z,59.03
2018-04-27T02:01:47.292Z,59.06
2018-04-27T02:02:26.281Z,59.03
2018-04-27T02:03:26.275Z,59.03
2018-04-27T02:04:47.276Z,59.03
2018-04-27T02:05:26.263Z,59.23
2018-04-27T02:06:47.260Z,59.03
2018-04-27T02:07:26.251Z,59.06
2018-04-27T02:08:26.245Z,59.03
2018-04-27T02:09:47.244Z,59.03
2018-04-27T02:10:26.240Z,59.13
2018-04-27T02:11:47.234Z,59.06
2018-04-27T02:12:26.222Z,59.16
2018-04-27T02:13:26.215Z,58.94
2018-04-27T02:14:47.214Z,59.03
2018-04-27T02:15:26.207Z,59.25
2018-04-27T02:16:47.205Z,59.03
2018-04-27T02:17:26.193Z,59.13
2018-04-27T02:18:26.188Z,59.23
2018-04-27T02:19:47.189Z,59.23
2018-04-27T02:20:26.174Z,59.23
2018-04-27T02:21:47.175Z,59.03
2018-04-27T02:22:26.167Z,59.03
2018-04-27T02:23:26.156Z,59.06
2018-04-27T02:24:47.160Z,59.25
2018-04-27T02:25:26.145Z,59.03
2018-04-27T02:26:47.143Z,59.13
2018-04-27T02:27:26.134Z,59.16
2018-04-27T02:28:26.128Z,59.13
2018-04-27T02:29:47.126Z,59.16
2018-04-27T02:30:26.124Z,59.03
2018-04-27T02:31:47.115Z,59.13
2018-04-27T02:32:26.104Z,59.03
2018-04-27T02:33:26.097Z,59.25
2018-04-27T02:34:47.101Z,59.16
2018-04-27T02:35:26.082Z,58.94
2018-04-27T02:36:47.085Z,59.25
2018-04-27T02:37:26.073Z,59.06
2018-04-27T02:38:26.073Z,59.23
2018-04-27T02:39:47.064Z,59.13
2018-04-27T02:40:26.059Z,59.03
2018-04-27T02:41:47.057Z,59.13
2018-04-27T02:42:26.042Z,59.13
2018-04-27T02:43:26.035Z,59.03
2018-04-27T02:44:47.039Z,59.23
2018-04-27T02:45:26.025Z,59.13
2018-04-27T02:46:47.026Z,59.23
2018-04-27T02:47:26.013Z,59.03
2018-04-27T02:48:26.012Z,58.94
2018-04-27T02:49:47.037Z,59.03
2018-04-27T02:50:25.996Z,59.23
2018-04-27T02:51:47.002Z,59.03
2018-04-27T02:52:25.983Z,58.75
2018-04-27T02:53:26.011Z,59.23
2018-04-27T02:54:46.975Z,58.94
2018-04-27T02:55:25.966Z,58.84
2018-04-27T02:56:46.967Z,58.84
2018-04-27T02:57:25.954Z,59.32
2018-04-27T02:58:25.950Z,58.94
2018-04-27T02:59:46.951Z,59.03
2018-04-27T03:00:25.942Z,58.94
2018-04-27T03:01:46.937Z,59.03
2018-04-27T03:02:25.940Z,59.23
2018-04-27T03:03:25.918Z,59.13
2018-04-27T03:04:46.921Z,59.13
2018-04-27T03:05:25.907Z,59.32
2018-04-27T03:06:46.909Z,59.13
2018-04-27T03:07:25.897Z,59.32
2018-04-27T03:08:25.889Z,59.52
2018-04-27T03:09:46.888Z,59.52
2018-04-27T03:10:25.898Z,59.61
2018-04-27T03:11:46.881Z,59.42
2018-04-27T03:12:25.865Z,59.52
2018-04-27T03:13:25.857Z,59.52
2018-04-27T03:14:46.859Z,59.61
2018-04-27T03:15:25.847Z,59.61
2018-04-27T03:16:46.844Z,59.42
2018-04-27T03:17:25.835Z,59.42
2018-04-27T03:18:25.835Z,59.52
2018-04-27T03:19:46.829Z,59.61
2018-04-27T03:20:25.821Z,59.61
2018-04-27T03:21:46.824Z,59.61
2018-04-27T03:22:25.812Z,59.42
2018-04-27T03:23:25.800Z,59.52
2018-04-27T03:24:46.802Z,59.71
2018-04-27T03:25:25.788Z,59.52
2018-04-27T03:26:46.787Z,59.42
2018-04-27T03:27:25.776Z,59.61
2018-04-27T03:28:25.771Z,59.61
2018-04-27T03:29:46.774Z,59.61
2018-04-27T03:30:25.755Z,59.61
2018-04-27T03:31:46.758Z,59.52
2018-04-27T03:32:25.743Z,59.52
2018-04-27T03:33:25.741Z,59.52
2018-04-27T03:34:46.740Z,59.52
2018-04-27T03:35:25.727Z,59.52
2018-04-27T03:36:46.732Z,59.71
2018-04-27T03:37:25.715Z,59.80
2018-04-27T03:38:25.709Z,60.00
2018-04-27T03:39:46.710Z,59.61
2018-04-27T03:40:25.696Z,59.42
2018-04-27T03:41:46.699Z,59.52
2018-04-27T03:42:25.686Z,59.52
2018-04-27T03:43:25.679Z,59.42
2018-04-27T03:44:46.679Z,60.19
2018-04-27T03:45:25.705Z,60.19
2018-04-27T03:46:46.669Z,59.42
2018-04-27T03:47:25.661Z,59.71
2018-04-27T03:48:25.649Z,60.10
2018-04-27T03:49:46.650Z,60.00
2018-04-27T03:50:25.640Z,60.00
2018-04-27T03:51:46.639Z,60.00
2018-04-27T03:52:25.631Z,60.19
2018-04-27T03:53:25.632Z,60.00
2018-04-27T03:54:46.619Z,60.51
2018-04-27T03:55:25.608Z,60.38
2018-04-27T03:56:46.605Z,60.10
2018-04-27T03:57:25.596Z,60.10
2018-04-27T03:58:25.597Z,59.71
2018-04-27T03:59:46.588Z,59.71
2018-04-27T04:00:25.572Z,59.61
2018-04-27T04:01:46.574Z,59.42
2018-04-27T04:02:25.562Z,59.61
2018-04-27T04:03:25.554Z,59.32
2018-04-27T04:04:46.555Z,59.03
2018-04-27T04:05:25.543Z,59.32
2018-04-27T04:06:46.541Z,58.26
2018-04-27T04:07:25.530Z,58.55
2018-04-27T04:08:25.520Z,58.17
2018-04-27T04:09:46.522Z,57.68
2018-04-27T04:10:25.504Z,57.78
2018-04-27T04:11:46.505Z,57.68
2018-04-27T04:12:25.498Z,57.78
2018-04-27T04:13:25.488Z,57.49
2018-04-27T04:14:46.484Z,57.39
2018-04-27T04:15:25.470Z,57.59
2018-04-27T04:16:46.475Z,57.10
2018-04-27T04:17:25.464Z,57.01
2018-04-27T04:18:25.448Z,57.01
2018-04-27T04:19:46.447Z,56.81
2018-04-27T04:20:25.437Z,56.91
2018-04-27T04:21:46.440Z,56.52
2018-04-27T04:22:25.424Z,56.72
2018-04-27T04:23:25.414Z,56.43
2018-04-27T04:24:46.414Z,56.24
2018-04-27T04:25:25.399Z,56.14
2018-04-27T04:26:46.395Z,56.26
2018-04-27T04:27:25.386Z,56.26
2018-04-27T04:28:25.375Z,56.24
2018-04-27T04:29:46.375Z,55.98
2018-04-27T04:30:25.362Z,55.49
2018-04-27T04:31:46.358Z,55.88
2018-04-27T04:32:25.407Z,55.98
2018-04-27T04:33:25.339Z,55.49
2018-04-27T04:34:46.337Z,55.49
2018-04-27T04:35:25.329Z,55.59
2018-04-27T04:36:46.329Z,55.68
2018-04-27T04:37:25.312Z,55.68
2018-04-27T04:38:25.409Z,55.78
2018-04-27T04:39:46.300Z,55.98
2018-04-27T04:40:25.290Z,55.20
2018-04-27T04:41:46.291Z,55.30
2018-04-27T04:42:25.273Z,55.10
2018-04-27T04:43:25.263Z,55.10
2018-04-27T04:44:46.266Z,55.40
2018-04-27T04:45:25.266Z,55.01
2018-04-27T04:46:46.251Z,55.18
2018-04-27T04:47:25.236Z,55.01
2018-04-27T04:48:25.230Z,55.20
2018-04-27T04:49:46.230Z,55.20
2018-04-27T04:50:25.212Z,55.10
2018-04-27T04:51:46.214Z,55.20
2018-04-27T04:52:25.238Z,55.40
2018-04-27T04:53:25.192Z,55.20
2018-04-27T04:54:46.195Z,55.30
2018-04-27T04:55:25.178Z,55.20
2018-04-27T04:56:46.179Z,55.01
2018-04-27T04:57:25.167Z,55.01
2018-04-27T04:58:25.155Z,55.10
2018-04-27T04:59:46.153Z,54.62
2018-04-27T05:00:25.144Z,54.62
2018-04-27T05:01:46.145Z,54.62
2018-04-27T05:02:25.128Z,54.62
2018-04-27T05:03:25.120Z,54.43
2018-04-27T05:04:46.124Z,54.82
2018-04-27T05:05:25.110Z,54.82
2018-04-27T05:06:46.102Z,54.43
2018-04-27T05:07:25.089Z,54.91
2018-04-27T05:08:25.084Z,54.91
2018-04-27T05:09:46.085Z,54.91
2018-04-27T05:10:25.065Z,54.82
2018-04-27T05:11:46.066Z,54.72
2018-04-27T05:12:25.057Z,55.01
2018-04-27T05:13:25.046Z,54.91
2018-04-27T05:14:46.115Z,54.91
2018-04-27T05:15:25.030Z,54.91
2018-04-27T05:16:46.072Z,55.01
2018-04-27T05:17:25.016Z,54.82
2018-04-27T05:18:25.008Z,54.91
2018-04-27T05:19:46.007Z,54.91
2018-04-27T05:20:24.996Z,54.82
2018-04-27T05:21:45.996Z,54.82
2018-04-27T05:22:24.978Z,54.82
2018-04-27T05:23:24.971Z,54.82
2018-04-27T05:24:46.004Z,54.91
2018-04-27T05:25:24.960Z,54.82
2018-04-27T05:26:45.953Z,54.91
2018-04-27T05:27:24.944Z,54.91
2018-04-27T05:28:24.931Z,54.82
2018-04-27T05:29:45.955Z,55.01
2018-04-27T05:30:24.917Z,54.82
2018-04-27T05:31:45.916Z,54.82
2018-04-27T05:32:24.908Z,54.82
2018-04-27T05:33:24.893Z,54.72
2018-04-27T05:34:45.897Z,54.82
2018-04-27T05:35:24.898Z,54.53
2018-04-27T05:36:45.878Z,55.01
2018-04-27T05:37:24.866Z,54.91
2018-04-27T05:38:24.857Z,54.82
2018-04-27T05:39:45.855Z,54.91
2018-04-27T05:40:24.841Z,54.33
2018-04-27T05:41:45.839Z,54.24
2018-04-27T05:42:24.826Z,54.24
2018-04-27T05:43:24.818Z,54.43
2018-04-27T05:44:45.819Z,54.43
2018-04-27T05:45:24.809Z,54.24
2018-04-27T05:46:45.803Z,54.24
2018-04-27T05:47:24.790Z,54.14
2018-04-27T05:48:24.783Z,54.14
2018-04-27T05:49:45.781Z,54.33
2018-04-27T05:50:24.767Z,54.24
2018-04-27T05:51:45.764Z,54.14
2018-04-27T05:52:24.754Z,53.95
2018-04-27T05:53:24.749Z,54.33
2018-04-27T05:54:45.743Z,54.14
2018-04-27T05:55:24.740Z,54.24
2018-04-27T05:56:45.731Z,54.24
2018-04-27T05:57:24.713Z,54.24
2018-04-27T05:58:24.713Z,54.24
2018-04-27T05:59:45.704Z,54.05
2018-04-27T06:00:24.695Z,53.95
2018-04-27T06:01:45.692Z,54.05
2018-04-27T06:02:24.680Z,54.05
2018-04-27T06:03:24.672Z,53.75
2018-04-27T06:04:45.672Z,53.75
2018-04-27T06:05:24.655Z,53.85
2018-04-27T06:06:45.654Z,53.95
2018-04-27T06:07:24.642Z,54.14
2018-04-27T06:08:24.634Z,53.85
2018-04-27T06:09:45.633Z,53.95
2018-04-27T06:10:24.620Z,53.95
2018-04-27T06:11:45.619Z,53.85
2018-04-27T06:12:24.604Z,53.85
2018-04-27T06:13:24.599Z,54.05
2018-04-27T06:14:45.599Z,54.14
2018-04-27T06:15:24.583Z,54.05
2018-04-27T06:16:45.582Z,53.88
2018-04-27T06:17:24.570Z,53.75
2018-04-27T06:18:24.559Z,53.75
2018-04-27T06:19:45.564Z,53.75
2018-04-27T06:20:24.547Z,53.56
2018-04-27T06:21:45.548Z,53.66
2018-04-27T06:22:24.528Z,53.37
2018-04-27T06:23:24.524Z,53.37
2018-04-27T06:24:45.531Z,53.59
2018-04-27T06:25:24.508Z,53.88
2018-04-27T06:26:45.507Z,53.69
2018-04-27T06:27:24.493Z,53.59
2018-04-27T06:28:24.492Z,53.39
2018-04-27T06:29:45.484Z,53.59
2018-04-27T06:30:24.471Z,53.69
2018-04-27T06:31:45.473Z,53.69
2018-04-27T06:32:24.462Z,53.69
2018-04-27T06:33:24.451Z,53.59
2018-04-27T06:34:45.449Z,53.78
2018-04-27T06:35:24.438Z,53.88
2018-04-27T06:36:45.445Z,53.39
2018-04-27T06:37:24.424Z,53.59
2018-04-27T06:38:24.412Z,53.39
2018-04-27T06:39:45.411Z,53.88
2018-04-27T06:40:24.404Z,53.39
2018-04-27T06:41:45.396Z,53.88
2018-04-27T06:42:24.383Z,53.88
2018-04-27T06:43:24.376Z,53.88
2018-04-27T06:44:45.375Z,53.59
2018-04-27T06:45:24.364Z,53.97
2018-04-27T06:46:45.361Z,53.88
2018-04-27T06:47:24.346Z,53.97
2018-04-27T06:48:24.339Z,53.97
2018-04-27T06:49:45.343Z,53.69
2018-04-27T06:50:24.327Z,53.59
2018-04-27T06:51:45.322Z,53.39
2018-04-27T06:52:24.315Z,53.69
2018-04-27T06:53:24.303Z,53.49
2018-04-27T06:54:45.300Z,53.30
2018-04-27T06:55:24.289Z,53.88
2018-04-27T06:56:45.289Z,53.30
2018-04-27T06:57:24.278Z,53.30
2018-04-27T06:58:24.268Z,53.30
2018-04-27T06:59:45.265Z,53.39
2018-04-27T07:00:24.254Z,53.30
2018-04-27T07:01:45.255Z,53.30
2018-04-27T07:02:24.245Z,52.91
2018-04-27T07:03:24.231Z,52.91
2018-04-27T07:04:45.229Z,52.91
2018-04-27T07:05:24.288Z,52.91
2018-04-27T07:06:45.217Z,53.01
2018-04-27T07:07:24.202Z,53.01
2018-04-27T07:08:24.194Z,52.81
2018-04-27T07:09:45.194Z,53.11
2018-04-27T07:10:24.180Z,53.23
2018-04-27T07:11:45.178Z,53.01
2018-04-27T07:12:24.168Z,53.33
2018-04-27T07:13:24.159Z,53.42
2018-04-27T07:14:45.158Z,52.91
2018-04-27T07:15:24.148Z,52.65
2018-04-27T07:16:45.202Z,52.65
2018-04-27T07:17:24.130Z,52.75
2018-04-27T07:18:24.134Z,52.75
2018-04-27T07:19:45.124Z,52.84
2018-04-27T07:20:24.112Z,52.75
2018-04-27T07:21:45.111Z,52.65
2018-04-27T07:22:24.095Z,52.65
2018-04-27T07:23:24.090Z,52.65
2018-04-27T07:24:45.090Z,52.84
2018-04-27T07:25:24.083Z,52.45
2018-04-27T07:26:45.072Z,52.36
2018-04-27T07:27:24.065Z,52.55
2018-04-27T07:28:24.054Z,52.45
2018-04-27T07:29:45.052Z,52.55
2018-04-27T07:30:24.038Z,52.55
2018-04-27T07:31:45.037Z,52.45
2018-04-27T07:32:24.025Z,52.36
2018-04-27T07:33:24.020Z,52.26
2018-04-27T07:34:45.025Z,52.55
2018-04-27T07:35:24.003Z,52.26
2018-04-27T07:36:45.003Z,52.17
2018-04-27T07:37:23.990Z,52.17
2018-04-27T07:38:23.987Z,52.55
2018-04-27T07:39:45.029Z,52.65
2018-04-27T07:40:23.974Z,52.65
2018-04-27T07:41:44.977Z,52.26
2018-04-27T07:42:23.951Z,52.26
2018-04-27T07:43:23.948Z,52.26
2018-04-27T07:44:44.950Z,52.36
2018-04-27T07:45:23.936Z,52.36
2018-04-27T07:46:44.933Z,52.26
2018-04-27T07:47:23.920Z,52.55
2018-04-27T07:48:23.911Z,52.45
2018-04-27T07:49:44.911Z,52.45
2018-04-27T07:50:23.897Z,52.55
2018-04-27T07:51:44.896Z,52.17
2018-04-27T07:52:23.887Z,52.19
2018-04-27T07:53:23.880Z,52.26
2018-04-27T07:54:44.876Z,52.19
2018-04-27T07:55:23.926Z,52.19
2018-04-27T07:56:44.866Z,52.29
2018-04-27T07:57:23.853Z,52.19
2018-04-27T07:58:23.843Z,52.19
2018-04-27T07:59:44.838Z,51.90
2018-04-27T08:00:23.830Z,51.81
2018-04-27T08:01:44.831Z,51.61
2018-04-27T08:02:23.884Z,51.51
2018-04-27T08:03:23.810Z,51.61
2018-04-27T08:04:44.807Z,51.81
2018-04-27T08:05:23.794Z,51.71
2018-04-27T08:06:44.794Z,51.81
2018-04-27T08:07:23.782Z,51.71
2018-04-27T08:08:23.783Z,52.00
2018-04-27T08:09:44.784Z,51.54
2018-04-27T08:10:23.760Z,51.83
2018-04-27T08:11:44.796Z,51.64
2018-04-27T08:12:23.749Z,51.35
2018-04-27T08:13:23.743Z,51.15
2018-04-27T08:14:44.738Z,51.64
2018-04-27T08:15:23.729Z,51.73
2018-04-27T08:16:44.730Z,51.44
2018-04-27T08:17:23.714Z,51.15
2018-04-27T08:18:23.706Z,51.44
2018-04-27T08:19:44.707Z,50.96
2018-04-27T08:20:23.695Z,51.06
2018-04-27T08:21:44.694Z,51.06
2018-04-27T08:22:23.689Z,50.76
2018-04-27T08:23:23.680Z,50.67
2018-04-27T08:24:44.679Z,50.79
2018-04-27T08:25:23.663Z,50.70
2018-04-27T08:26:44.661Z,50.98
2018-04-27T08:27:23.652Z,50.89
2018-04-27T08:28:23.650Z,50.50
2018-04-27T08:29:44.641Z,50.60
2018-04-27T08:30:23.628Z,50.70
2018-04-27T08:31:44.634Z,50.70
2018-04-27T08:32:23.616Z,50.60
2018-04-27T08:33:23.611Z,50.60
2018-04-27T08:34:44.609Z,50.60
2018-04-27T08:35:23.596Z,50.79
2018-04-27T08:36:44.600Z,50.89
2018-04-27T08:37:23.590Z,50.50
2018-04-27T08:38:23.579Z,49.95
2018-04-27T08:39:44.577Z,50.04
2018-04-27T08:40:23.571Z,49.95
2018-04-27T08:41:44.564Z,49.85
2018-04-27T08:42:23.550Z,49.85
2018-04-27T08:43:23.555Z,50.14
2018-04-27T08:44:44.546Z,49.95
2018-04-27T08:45:23.534Z,50.04
2018-04-27T08:46:44.539Z,49.85
2018-04-27T08:47:23.524Z,49.95
2018-04-27T08:48:23.528Z,50.04
2018-04-27T08:49:44.514Z,49.56
2018-04-27T08:50:23.607Z,49.85
2018-04-27T08:51:44.503Z,49.46
2018-04-27T08:52:23.491Z,49.37
2018-04-27T08:53:23.485Z,49.37
2018-04-27T08:54:44.490Z,49.27
2018-04-27T08:55:23.475Z,49.27
2018-04-27T08:56:44.475Z,49.46
2018-04-27T08:57:23.460Z,49.46
2018-04-27T08:58:23.453Z,49.46
2018-04-27T08:59:44.452Z,49.58
2018-04-27T09:00:23.448Z,49.65
2018-04-27T09:01:44.446Z,49.49
2018-04-27T09:02:23.428Z,49.29
2018-04-27T09:03:23.424Z,49.00
2018-04-27T09:04:44.429Z,49.10
2018-04-27T09:05:23.412Z,49.10
2018-04-27T09:06:44.492Z,49.19
2018-04-27T09:07:23.403Z,49.19
2018-04-27T09:08:23.396Z,49.49
2018-04-27T09:09:44.394Z,49.19
2018-04-27T09:10:23.381Z,49.58
2018-04-27T09:11:44.385Z,48.90
2018-04-27T09:12:23.371Z,49.00
2018-04-27T09:13:23.364Z,48.90
2018-04-27T09:14:44.362Z,48.81
2018-04-27T09:15:23.356Z,48.71
2018-04-27T09:16:44.354Z,48.61
2018-04-27T09:17:23.342Z,48.64
2018-04-27T09:18:23.334Z,48.52
2018-04-27T09:19:44.335Z,48.61
2018-04-27T09:20:23.324Z,48.32
2018-04-27T09:21:44.324Z,48.64
2018-04-27T09:22:23.310Z,48.44
2018-04-27T09:23:23.312Z,48.64
2018-04-27T09:24:44.306Z,48.64
2018-04-27T09:25:23.295Z,48.44
2018-04-27T09:26:44.300Z,48.74
2018-04-27T09:27:23.285Z,48.74
2018-04-27T09:28:23.278Z,48.74
2018-04-27T09:29:44.277Z,48.83
2018-04-27T09:30:23.265Z,48.83
2018-04-27T09:31:44.267Z,48.64
2018-04-27T09:32:23.267Z,48.54
2018-04-27T09:33:23.248Z,48.15
2018-04-27T09:34:44.250Z,48.25
2018-04-27T09:35:23.240Z,48.25
2018-04-27T09:36:44.243Z,48.25
2018-04-27T09:37:23.225Z,48.54
2018-04-27T09:38:23.220Z,48.25
2018-04-27T09:39:44.219Z,48.64
2018-04-27T09:40:23.220Z,48.06
2018-04-27T09:41:44.207Z,48.25
2018-04-27T09:42:23.195Z,48.37
2018-04-27T09:43:23.191Z,48.44
2018-04-27T09:44:44.194Z,48.27
2018-04-27T09:45:23.177Z,48.18
2018-04-27T09:46:44.181Z,48.27
2018-04-27T09:47:23.171Z,48.18
2018-04-27T09:48:23.168Z,47.89
2018-04-27T09:49:44.163Z,47.79
2018-04-27T09:50:23.150Z,48.08
2018-04-27T09:51:44.154Z,47.79
2018-04-27T09:52:23.141Z,47.89
2018-04-27T09:53:23.135Z,47.89
2018-04-27T09:54:44.134Z,47.89
2018-04-27T09:55:23.126Z,47.69
2018-04-27T09:56:44.124Z,47.69
2018-04-27T09:57:23.120Z,47.89
2018-04-27T09:58:23.105Z,47.60
2018-04-27T09:59:44.105Z,47.89
2018-04-27T10:00:23.094Z,47.79
2018-04-27T10:01:44.097Z,47.69
2018-04-27T10:02:23.087Z,47.79
2018-04-27T10:03:23.078Z,47.79
2018-04-27T10:04:44.079Z,47.79
2018-04-27T10:05:23.070Z,47.89
2018-04-27T10:06:44.065Z,47.89
2018-04-27T10:07:23.055Z,47.79
2018-04-27T10:08:23.048Z,47.79
2018-04-27T10:09:44.049Z,47.98
2018-04-27T10:10:23.036Z,47.98
2018-04-27T10:11:44.039Z,47.89
2018-04-27T10:12:23.029Z,47.89
2018-04-27T10:13:23.023Z,47.79
2018-04-27T10:14:44.024Z,47.79
2018-04-27T10:15:23.012Z,47.79
2018-04-27T10:16:44.014Z,47.69
2018-04-27T10:17:23.001Z,47.79
2018-04-27T10:18:22.993Z,47.79
2018-04-27T10:19:44.007Z,47.79
2018-04-27T10:20:23.032Z,47.89
2018-04-27T10:21:43.996Z,47.79
2018-04-27T10:22:22.975Z,47.79
2018-04-27T10:23:22.996Z,47.79
2018-04-27T10:24:43.972Z,47.89
2018-04-27T10:25:22.957Z,48.08
2018-04-27T10:26:43.963Z,48.08
2018-04-27T10:27:22.948Z,47.98
2018-04-27T10:28:22.948Z,47.79
2018-04-27T10:29:43.945Z,47.89
2018-04-27T10:30:22.973Z,47.79
2018-04-27T10:31:43.933Z,47.50
2018-04-27T10:32:22.931Z,47.50
2018-04-27T10:33:22.915Z,47.60
2018-04-27T10:34:43.914Z,47.50
2018-04-27T10:35:22.906Z,47.50
2018-04-27T10:36:43.910Z,47.50
2018-04-27T10:37:22.890Z,47.60
2018-04-27T10:38:22.892Z,47.60
2018-04-27T10:39:43.888Z,47.60
2018-04-27T10:40:22.879Z,47.60
2018-04-27T10:41:43.879Z,47.60
2018-04-27T10:42:22.864Z,47.60
2018-04-27T10:43:22.858Z,47.69
2018-04-27T10:44:43.867Z,47.50
2018-04-27T10:45:22.848Z,47.60
2018-04-27T10:46:43.850Z,47.60
2018-04-27T10:47:22.837Z,47.69
2018-04-27T10:48:22.833Z,47.98
2018-04-27T10:49:43.838Z,47.69
2018-04-27T10:50:22.928Z,48.08
2018-04-27T10:51:43.820Z,47.98
2018-04-27T10:52:22.820Z,48.08
2018-04-27T10:53:22.807Z,48.08
2018-04-27T10:54:43.808Z,48.08
2018-04-27T10:55:22.795Z,48.08
2018-04-27T10:56:43.801Z,47.98
2018-04-27T10:57:22.784Z,47.98
2018-04-27T10:58:22.793Z,47.89
2018-04-27T10:59:43.779Z,48.08
2018-04-27T11:00:22.771Z,47.89
2018-04-27T11:01:43.771Z,47.98
2018-04-27T11:02:22.758Z,47.98
2018-04-27T11:03:22.832Z,48.10
2018-04-27T11:04:43.758Z,47.98
2018-04-27T11:05:22.743Z,47.98
2018-04-27T11:06:43.745Z,48.08
2018-04-27T11:07:22.737Z,47.79
2018-04-27T11:08:22.737Z,47.89
2018-04-27T11:09:43.795Z,47.89
2018-04-27T11:10:22.716Z,47.79
2018-04-27T11:11:43.721Z,47.98
2018-04-27T11:12:22.703Z,47.89
2018-04-27T11:13:22.702Z,47.79
2018-04-27T11:14:43.704Z,47.50
2018-04-27T11:15:22.691Z,47.89
2018-04-27T11:16:43.775Z,48.08
2018-04-27T11:17:22.689Z,48.08
2018-04-27T11:18:22.674Z,47.79
2018-04-27T11:19:43.678Z,48.27
2018-04-27T11:20:22.671Z,48.57
2018-04-27T11:21:43.668Z,48.37
2018-04-27T11:22:22.654Z,48.37
2018-04-27T11:23:22.653Z,48.37
2018-04-27T11:24:43.655Z,48.47
2018-04-27T11:25:22.638Z,48.47
2018-04-27T11:26:43.640Z,48.47
2018-04-27T11:27:22.631Z,48.47
2018-04-27T11:28:22.623Z,48.27
2018-04-27T11:29:43.636Z,48.27
2018-04-27T11:30:22.610Z,47.98
2018-04-27T11:31:43.612Z,48.37
2018-04-27T11:32:22.601Z,48.37
2018-04-27T11:33:22.599Z,48.08
2018-04-27T11:34:43.594Z,48.76
2018-04-27T11:35:22.594Z,48.37
2018-04-27T11:36:43.588Z,48.18
2018-04-27T11:37:22.575Z,48.27
2018-04-27T11:38:22.571Z,48.76
2018-04-27T11:39:43.572Z,48.37
2018-04-27T11:40:22.559Z,48.37
2018-04-27T11:41:43.562Z,48.27
2018-04-27T11:42:22.549Z,47.98
2018-04-27T11:43:22.544Z,48.08
2018-04-27T11:44:43.543Z,48.27
2018-04-27T11:45:22.535Z,48.27
2018-04-27T11:46:43.537Z,48.08
2018-04-27T11:47:22.522Z,48.08
2018-04-27T11:48:22.518Z,48.08
2018-04-27T11:49:43.516Z,48.27
2018-04-27T11:50:22.503Z,48.47
2018-04-27T11:51:43.506Z,48.64
2018-04-27T11:52:22.505Z,48.54
2018-04-27T11:53:22.502Z,48.57
2018-04-27T11:54:43.488Z,48.85
2018-04-27T11:55:22.477Z,48.95
2018-04-27T11:56:43.480Z,48.95
2018-04-27T11:57:22.471Z,48.95
2018-04-27T11:58:22.461Z,48.85
2018-04-27T11:59:43.461Z,48.76
2018-04-27T12:00:22.449Z,48.66
2018-04-27T12:01:43.469Z,48.76
2018-04-27T12:02:22.439Z,48.64
2018-04-27T12:03:22.438Z,48.44
2018-04-27T12:04:43.446Z,48.74
2018-04-27T12:05:22.427Z,48.83
2018-04-27T12:06:43.423Z,48.64
2018-04-27T12:07:22.414Z,48.64
2018-04-27T12:08:22.408Z,48.54
2018-04-27T12:09:43.409Z,48.64
2018-04-27T12:10:22.405Z,48.64
2018-04-27T12:11:43.396Z,48.64
2018-04-27T12:12:22.385Z,48.44
2018-04-27T12:13:22.380Z,48.35
2018-04-27T12:14:43.379Z,48.54
2018-04-27T12:15:22.370Z,48.44
2018-04-27T12:16:43.371Z,48.44
2018-04-27T12:17:22.357Z,48.44
2018-04-27T12:18:22.354Z,48.54
2018-04-27T12:19:43.352Z,48.74
2018-04-27T12:20:22.345Z,48.64
2018-04-27T12:21:43.344Z,48.54
2018-04-27T12:22:22.331Z,48.64
2018-04-27T12:23:22.324Z,48.64
2018-04-27T12:24:43.327Z,48.83
2018-04-27T12:25:22.314Z,48.74
2018-04-27T12:26:43.313Z,48.93
2018-04-27T12:27:22.305Z,48.74
2018-04-27T12:28:22.296Z,49.12
2018-04-27T12:29:43.300Z,48.93
2018-04-27T12:30:22.284Z,49.02
2018-04-27T12:31:43.483Z,49.12
2018-04-27T12:32:22.275Z,49.02
2018-04-27T12:33:22.269Z,48.93
2018-04-27T12:34:43.269Z,48.90
2018-04-27T12:35:22.284Z,49.22
2018-04-27T12:36:43.260Z,48.81
2018-04-27T12:37:22.248Z,48.74
2018-04-27T12:38:22.239Z,49.58
2018-04-27T12:39:43.248Z,49.39
2018-04-27T12:40:22.227Z,49.39
2018-04-27T12:41:43.233Z,49.39
2018-04-27T12:42:22.215Z,49.49
2018-04-27T12:43:22.216Z,49.29
2018-04-27T12:44:43.253Z,49.19
2018-04-27T12:45:22.201Z,49.10
2018-04-27T12:46:43.207Z,49.58
2018-04-27T12:47:22.188Z,49.58
2018-04-27T12:48:22.182Z,49.29
2018-04-27T12:49:43.186Z,49.29
2018-04-27T12:50:22.170Z,49.29
2018-04-27T12:51:43.175Z,49.29
2018-04-27T12:52:22.161Z,49.29